Time;durP1;ratioP1;P1;durP2;ratioP2;P2;SDS_P1;SDS_P2;PMS_P1;PMS_P2;Temp;Humidity;BMP_temperature;BMP_pressure;BME280_temperature;BME280_humidity;BME280_pressure;Samples;Min_cycle;Max_cycle;Signal;HPM_P1;HPM_P2
2023/04/06 00:01:34;;;;;;;13.90;10.98;;;4.20;99.90;;;;;;4988073;28;20057;-60
2023/04/06 00:04:00;;;;;;;14.25;10.68;;;3.90;99.90;;;;;;4987682;28;20054;-61
2023/04/06 00:06:26;;;;;;;14.48;10.35;;;3.90;99.90;;;;;;4988765;28;20046;-60
2023/04/06 00:08:52;;;;;;;13.00;10.85;;;3.80;99.90;;;;;;4987642;28;20052;-59
2023/04/06 00:11:18;;;;;;;13.52;10.40;;;3.90;99.90;;;;;;4988772;28;20046;-61
2023/04/06 00:13:44;;;;;;;14.18;10.93;;;3.70;99.90;;;;;;4988931;28;20133;-55
2023/04/06 00:16:10;;;;;;;15.50;10.93;;;3.70;99.90;;;;;;4988892;28;20042;-60
2023/04/06 00:18:36;;;;;;;15.00;10.68;;;3.70;99.90;;;;;;4987198;28;20053;-61
2023/04/06 00:21:02;;;;;;;14.70;10.80;;;3.70;99.90;;;;;;4987083;28;20065;-59
2023/04/06 00:23:27;;;;;;;12.68;10.45;;;3.70;99.90;;;;;;4988102;28;20042;-57
2023/04/06 00:25:53;;;;;;;15.10;11.25;;;3.70;99.90;;;;;;4987722;28;20042;-61
2023/04/06 00:28:24;;;;;;;17.00;11.63;;;3.60;99.90;;;;;;4987877;28;20049;-59
2023/04/06 00:30:52;;;;;;;13.07;11.18;;;3.60;99.90;;;;;;4988103;28;20039;-60
2023/04/06 00:33:18;;;;;;;12.75;10.77;;;3.50;99.90;;;;;;4986894;28;20073;-58
2023/04/06 00:35:44;;;;;;;13.82;11.20;;;3.50;99.90;;;;;;4988675;28;20121;-60
2023/04/06 00:38:09;;;;;;;15.00;11.77;;;3.50;99.90;;;;;;4988413;28;20561;-58
2023/04/06 00:40:35;;;;;;;16.20;11.50;;;3.50;99.90;;;;;;4987832;28;20038;-60
2023/04/06 00:43:01;;;;;;;15.05;11.65;;;3.50;99.90;;;;;;4988214;28;20050;-60
2023/04/06 00:45:27;;;;;;;19.40;11.43;;;3.80;99.90;;;;;;4988011;28;20085;-59
2023/04/06 00:47:53;;;;;;;16.92;10.98;;;3.40;99.90;;;;;;4987651;28;20034;-57
2023/04/06 00:50:19;;;;;;;13.60;11.52;;;3.40;99.90;;;;;;4986801;28;20501;-59
2023/04/06 00:52:45;;;;;;;14.35;11.35;;;3.40;99.90;;;;;;4988504;28;20042;-58
2023/04/06 00:55:10;;;;;;;13.45;11.80;;;3.40;99.90;;;;;;4987933;28;20053;-60
2023/04/06 00:57:36;;;;;;;13.63;11.57;;;3.30;99.90;;;;;;4990330;28;20045;-60
2023/04/06 01:00:03;;;;;;;15.45;11.88;;;3.20;99.90;;;;;;4995917;28;20509;-59
2023/04/06 01:02:29;;;;;;;14.48;11.43;;;3.20;99.90;;;;;;4985875;28;20057;-59
2023/04/06 01:04:55;;;;;;;13.77;11.30;;;3.10;99.90;;;;;;4986322;28;20050;-60
2023/04/06 01:07:20;;;;;;;15.27;11.98;;;3.20;99.90;;;;;;4994723;28;20041;-59
2023/04/06 01:09:46;;;;;;;13.13;11.23;;;3.00;99.90;;;;;;5007456;28;20487;-61
2023/04/06 01:12:12;;;;;;;14.20;10.93;;;2.90;99.90;;;;;;5007624;28;20046;-58
2023/04/06 01:14:37;;;;;;;18.70;12.43;;;2.90;99.90;;;;;;5006543;28;20519;-60
2023/04/06 01:17:03;;;;;;;15.05;11.85;;;3.40;99.90;;;;;;5006952;28;20077;-60
2023/04/06 01:19:29;;;;;;;17.10;12.48;;;2.90;99.90;;;;;;5037123;28;20132;-59
2023/04/06 01:21:54;;;;;;;17.25;12.48;;;2.80;99.90;;;;;;5006414;28;20042;-58
2023/04/06 01:24:21;;;;;;;14.30;12.43;;;2.80;99.90;;;;;;5006761;28;20069;-60
2023/04/06 01:26:47;;;;;;;13.60;11.57;;;2.80;99.90;;;;;;5007038;28;20088;-57
2023/04/06 01:29:12;;;;;;;14.05;12.20;;;2.80;99.90;;;;;;5006206;28;20077;-60
2023/04/06 01:31:39;;;;;;;14.32;12.25;;;2.80;99.90;;;;;;5006612;28;20053;-60
2023/04/06 01:34:05;;;;;;;15.90;11.70;;;2.70;99.90;;;;;;5006007;28;20718;-60
2023/04/06 01:36:31;;;;;;;15.90;13.00;;;2.70;99.90;;;;;;5005471;28;20052;-61
2023/04/06 01:38:57;;;;;;;15.50;12.35;;;2.70;99.90;;;;;;5006541;28;20087;-59
2023/04/06 01:41:22;;;;;;;16.00;12.60;;;2.70;99.90;;;;;;5006736;28;20046;-61
2023/04/06 01:43:49;;;;;;;19.27;12.70;;;4.50;99.90;;;;;;5005683;28;20119;-59
2023/04/06 01:46:15;;;;;;;15.40;12.88;;;2.70;99.90;;;;;;5006151;28;20045;-59
2023/04/06 01:48:41;;;;;;;17.77;12.65;;;2.70;99.90;;;;;;5005268;28;20138;-58
2023/04/06 01:51:06;;;;;;;15.02;13.20;;;2.70;99.90;;;;;;5006552;28;20097;-60
2023/04/06 01:53:32;;;;;;;16.83;13.13;;;2.70;99.90;;;;;;5006253;28;20040;-54
2023/04/06 01:55:58;;;;;;;15.80;12.57;;;2.60;99.90;;;;;;5005794;28;20491;-61
2023/04/06 01:58:24;;;;;;;14.65;12.57;;;2.60;99.90;;;;;;5000201;28;20046;-60
2023/04/06 02:00:49;;;;;;;15.07;13.13;;;2.50;99.90;;;;;;4988810;28;20325;-56
2023/04/06 02:03:15;;;;;;;15.10;13.13;;;2.50;99.90;;;;;;4985674;28;20057;-60
2023/04/06 02:05:41;;;;;;;15.57;12.88;;;2.40;99.90;;;;;;4986571;28;20050;-61
2023/04/06 02:08:07;;;;;;;16.23;12.95;;;2.30;99.90;;;;;;4986777;28;20097;-54
2023/04/06 02:10:34;;;;;;;16.38;12.70;;;2.30;99.90;;;;;;4986108;28;20047;-60
2023/04/06 02:12:59;;;;;;;17.65;12.98;;;2.30;99.90;;;;;;4986737;28;20129;-59
2023/04/06 02:15:26;;;;;;;16.73;12.82;;;2.20;99.90;;;;;;4985613;28;20129;-60
2023/04/06 02:17:52;;;;;;;20.83;13.05;;;2.20;99.90;;;;;;4985487;28;20046;-57
2023/04/06 02:20:17;;;;;;;16.63;12.52;;;2.10;99.90;;;;;;4986903;28;20061;-58
2023/04/06 02:22:44;;;;;;;15.98;13.52;;;2.00;99.90;;;;;;4986531;28;20284;-55
2023/04/06 02:25:09;;;;;;;17.30;13.18;;;2.00;99.90;;;;;;4986342;28;20038;-61
2023/04/06 02:27:36;;;;;;;16.58;13.25;;;2.00;99.90;;;;;;4985117;28;20044;-56
2023/04/06 02:30:02;;;;;;;16.52;13.27;;;2.00;99.90;;;;;;4987012;28;20050;-61
2023/04/06 02:32:28;;;;;;;21.45;13.48;;;2.00;99.90;;;;;;4990662;28;20046;-59
2023/04/06 02:34:53;;;;;;;16.80;13.43;;;2.00;99.90;;;;;;4989319;28;20715;-59
2023/04/06 02:37:19;;;;;;;15.27;12.82;;;3.20;99.90;;;;;;4990657;28;20046;-61
2023/04/06 02:39:45;;;;;;;17.17;13.25;;;2.10;99.90;;;;;;4990383;28;20050;-54
2023/04/06 02:42:10;;;;;;;15.75;12.93;;;2.00;99.90;;;;;;4972194;28;20100;-58
2023/04/06 02:44:36;;;;;;;15.50;13.25;;;2.30;99.90;;;;;;4988606;28;20609;-61
2023/04/06 02:47:01;;;;;;;16.55;13.07;;;1.90;99.90;;;;;;5006016;28;20681;-58
2023/04/06 02:49:27;;;;;;;15.65;13.32;;;3.70;99.90;;;;;;5009026;28;20069;-60
2023/04/06 02:51:53;;;;;;;16.02;12.82;;;3.00;99.90;;;;;;5009401;28;20044;-58
2023/04/06 02:54:18;;;;;;;17.90;13.23;;;3.50;99.90;;;;;;5009727;28;20512;-57
2023/04/06 02:56:44;;;;;;;19.67;14.00;;;1.90;99.90;;;;;;5008301;28;20038;-58
2023/04/06 02:59:10;;;;;;;16.50;13.32;;;1.80;99.90;;;;;;5000470;28;20057;-56
2023/04/06 03:01:36;;;;;;;15.52;12.95;;;1.80;99.90;;;;;;4989890;28;20058;-59
2023/04/06 03:04:02;;;;;;;15.45;13.10;;;1.90;99.90;;;;;;4989264;28;20035;-60
2023/04/06 03:06:27;;;;;;;17.70;13.50;;;2.60;99.90;;;;;;4989626;28;20046;-58
2023/04/06 03:08:53;;;;;;;16.33;12.55;;;1.80;99.90;;;;;;4989987;28;20057;-60
2023/04/06 03:11:19;;;;;;;16.02;13.25;;;1.80;99.90;;;;;;4989186;28;20042;-59
2023/04/06 03:13:45;;;;;;;16.35;13.50;;;1.70;99.90;;;;;;4989875;28;20058;-61
2023/04/06 03:16:10;;;;;;;17.98;13.68;;;1.70;99.90;;;;;;4989423;28;20125;-60
2023/04/06 03:18:36;;;;;;;16.77;14.13;;;2.70;99.90;;;;;;4989166;28;20116;-60
2023/04/06 03:21:02;;;;;;;14.65;13.05;;;1.70;99.90;;;;;;4989700;28;20548;-60
2023/04/06 03:23:27;;;;;;;16.98;13.02;;;1.70;99.90;;;;;;4989191;28;20121;-60
2023/04/06 03:25:53;;;;;;;18.27;13.52;;;1.70;99.90;;;;;;4989543;28;20452;-60
2023/04/06 03:28:18;;;;;;;15.40;12.95;;;1.80;99.90;;;;;;4989048;28;20129;-58
2023/04/06 03:30:45;;;;;;;17.02;13.18;;;1.80;99.90;;;;;;4989301;28;20046;-60
2023/04/06 03:33:11;;;;;;;15.63;13.65;;;2.00;99.90;;;;;;4988197;28;20529;-58
2023/04/06 03:35:37;;;;;;;17.95;12.98;;;1.80;99.90;;;;;;4989573;28;20070;-60
2023/04/06 03:38:04;;;;;;;16.52;13.02;;;1.80;99.90;;;;;;4989445;28;20504;-60
2023/04/06 03:40:31;;;;;;;17.33;13.27;;;1.80;99.90;;;;;;4987660;28;20050;-59
2023/04/06 03:42:56;;;;;;;17.05;13.27;;;1.80;99.90;;;;;;4988264;28;20045;-61
2023/04/06 03:45:22;;;;;;;17.92;12.55;;;1.70;99.90;;;;;;4988967;28;20158;-60
2023/04/06 03:47:47;;;;;;;17.33;12.68;;;1.70;99.90;;;;;;4987643;28;20046;-60
2023/04/06 03:50:13;;;;;;;17.30;12.75;;;1.70;99.90;;;;;;4988643;28;20657;-60
2023/04/06 03:52:39;;;;;;;15.70;12.48;;;1.60;99.90;;;;;;4988450;28;20756;-60
2023/04/06 03:55:05;;;;;;;16.40;12.73;;;1.50;99.90;;;;;;4988840;28;20604;-60
2023/04/06 03:57:31;;;;;;;16.05;12.27;;;1.50;99.90;;;;;;4990778;28;20042;-60
2023/04/06 03:59:56;;;;;;;15.93;13.18;;;1.50;99.90;;;;;;4997384;28;20133;-57
2023/04/06 04:02:22;;;;;;;15.35;12.48;;;1.40;99.90;;;;;;4988735;28;20054;-60
2023/04/06 04:04:48;;;;;;;16.98;13.18;;;1.40;99.90;;;;;;4988347;28;20436;-59
2023/04/06 04:07:13;;;;;;;17.55;13.15;;;1.30;99.90;;;;;;4988427;28;20042;-59
2023/04/06 04:09:39;;;;;;;18.85;13.48;;;1.20;99.90;;;;;;4988749;28;20046;-60
2023/04/06 04:12:05;;;;;;;16.20;12.50;;;1.20;99.90;;;;;;4988177;28;20390;-57
2023/04/06 04:14:31;;;;;;;17.88;13.50;;;1.20;99.90;;;;;;4988498;28;20049;-59
2023/04/06 04:16:57;;;;;;;17.73;13.23;;;1.60;99.90;;;;;;4988731;28;20051;-59
2023/04/06 04:19:22;;;;;;;16.20;12.57;;;1.10;99.90;;;;;;4988312;28;20129;-60
2023/04/06 04:21:48;;;;;;;16.90;13.52;;;1.10;99.90;;;;;;4991952;28;20100;-60
2023/04/06 04:24:14;;;;;;;15.48;12.82;;;1.00;99.90;;;;;;5008069;28;20041;-60
2023/04/06 04:26:40;;;;;;;18.02;13.57;;;1.00;99.90;;;;;;5008108;28;20496;-60
2023/04/06 04:29:06;;;;;;;18.23;13.55;;;1.00;99.90;;;;;;5007327;28;20053;-59
2023/04/06 04:31:32;;;;;;;15.95;13.35;;;1.10;99.90;;;;;;5007925;28;20042;-56
2023/04/06 04:33:59;;;;;;;18.55;14.68;;;1.10;99.90;;;;;;5007493;28;20120;-60
2023/04/06 04:36:25;;;;;;;19.65;14.57;;;1.10;99.90;;;;;;5007612;28;20042;-56
2023/04/06 04:38:51;;;;;;;16.35;14.20;;;1.10;99.90;;;;;;5007484;28;20042;-61
2023/04/06 04:41:17;;;;;;;19.00;13.80;;;1.10;99.90;;;;;;5007831;28;20125;-59
2023/04/06 04:43:43;;;;;;;16.63;13.70;;;1.10;99.90;;;;;;5007534;28;20121;-58
2023/04/06 04:46:09;;;;;;;17.17;13.68;;;1.00;99.90;;;;;;5007044;28;20045;-59
2023/04/06 04:48:34;;;;;;;18.27;14.18;;;1.10;99.90;;;;;;5006562;28;20176;-60
2023/04/06 04:51:00;;;;;;;16.55;13.55;;;1.10;99.90;;;;;;5007420;28;20078;-58
2023/04/06 04:53:26;;;;;;;14.88;13.13;;;1.10;99.90;;;;;;5006852;28;20584;-56
2023/04/06 04:55:51;;;;;;;17.33;13.18;;;1.20;99.90;;;;;;5005859;28;20045;-59
2023/04/06 04:58:19;;;;;;;15.35;12.65;;;1.20;99.90;;;;;;4999902;28;20257;-60
2023/04/06 05:00:45;;;;;;;19.08;13.90;;;1.20;99.90;;;;;;4989912;28;20046;-59
2023/04/06 05:03:20;;;;;;;16.65;13.68;;;1.20;99.90;;;;;;4986698;28;20077;-60
2023/04/06 05:05:45;;;;;;;16.05;12.63;;;1.20;99.90;;;;;;4987306;28;20602;-61
2023/04/06 05:08:12;;;;;;;15.48;12.82;;;1.20;99.90;;;;;;4987026;28;20109;-61
2023/04/06 05:10:37;;;;;;;14.20;12.32;;;1.20;99.90;;;;;;4987609;28;20402;-60
2023/04/06 05:13:03;;;;;;;16.45;12.75;;;1.20;99.90;;;;;;4987349;28;20046;-59
2023/04/06 05:15:29;;;;;;;15.73;12.73;;;1.20;99.90;;;;;;4987767;28;20078;-58
2023/04/06 05:17:55;;;;;;;18.17;12.75;;;1.20;99.90;;;;;;4986470;28;20057;-59
2023/04/06 05:20:20;;;;;;;18.17;12.23;;;1.20;99.90;;;;;;4987661;28;20039;-59
2023/04/06 05:22:46;;;;;;;14.77;12.07;;;1.20;99.90;;;;;;4987333;28;20119;-57
2023/04/06 05:25:13;;;;;;;15.70;12.25;;;1.20;99.90;;;;;;4986987;28;20066;-57
2023/04/06 05:27:39;;;;;;;18.17;13.10;;;1.30;99.90;;;;;;4986965;28;20532;-63
2023/04/06 05:30:06;;;;;;;19.33;12.52;;;1.30;99.90;;;;;;4986153;28;20460;-62
2023/04/06 05:32:32;;;;;;;16.85;12.18;;;1.30;99.90;;;;;;4985871;28;20046;-56
2023/04/06 05:34:57;;;;;;;18.55;11.50;;;1.40;99.90;;;;;;4987221;28;20374;-56
2023/04/06 05:37:23;;;;;;;17.35;12.70;;;1.40;99.90;;;;;;4987158;28;20069;-59
2023/04/06 05:39:49;;;;;;;17.48;12.00;;;1.40;99.90;;;;;;4987313;28;20046;-62
2023/04/06 05:42:15;;;;;;;15.93;12.80;;;2.40;99.90;;;;;;4986616;28;20085;-62
2023/04/06 05:44:41;;;;;;;17.15;12.40;;;1.70;99.90;;;;;;4986623;28;20050;-62
2023/04/06 05:47:06;;;;;;;19.00;12.63;;;1.80;99.90;;;;;;4986364;28;20034;-56
2023/04/06 05:49:32;;;;;;;16.38;12.05;;;2.70;99.90;;;;;;4984539;28;20053;-61
2023/04/06 05:51:58;;;;;;;17.33;11.55;;;2.30;99.90;;;;;;4986449;28;20113;-59
2023/04/06 05:54:23;;;;;;;14.98;11.52;;;2.60;99.90;;;;;;4986399;28;20042;-58
2023/04/06 05:56:49;;;;;;;18.33;11.90;;;2.90;99.90;;;;;;4986911;28;20034;-60
2023/04/06 05:59:15;;;;;;;15.80;11.25;;;3.70;99.90;;;;;;4997238;28;20042;-59
2023/04/06 06:01:40;;;;;;;17.95;12.40;;;3.10;99.90;;;;;;4986035;28;20425;-60
2023/04/06 06:04:06;;;;;;;16.42;12.07;;;3.10;99.90;;;;;;4985945;28;20042;-61
2023/04/06 06:06:32;;;;;;;13.27;10.82;;;3.10;99.90;;;;;;4985878;28;20117;-55
2023/04/06 06:09:02;;;;;;;14.85;10.93;;;3.30;99.90;;;;;;4986817;28;20112;-61
2023/04/06 06:11:28;;;;;;;13.20;10.25;;;3.80;99.90;;;;;;4986904;28;20054;-60
2023/04/06 06:13:53;;;;;;;12.15;10.05;;;3.70;99.90;;;;;;4985920;28;20062;-60
2023/04/06 06:16:19;;;;;;;14.25;10.38;;;3.60;99.90;;;;;;4986620;28;20042;-55
2023/04/06 06:18:45;;;;;;;13.00;9.95;;;3.80;99.90;;;;;;4985955;28;20045;-58
2023/04/06 06:21:14;;;;;;;12.07;9.52;;;4.70;99.90;;;;;;4986101;28;20073;-61
2023/04/06 06:23:42;;;;;;;12.70;9.63;;;4.40;99.90;;;;;;4986696;28;20050;-62
2023/04/06 06:26:07;;;;;;;14.40;9.50;;;4.70;99.90;;;;;;4986365;28;20127;-60
2023/04/06 06:28:33;;;;;;;13.88;9.80;;;4.90;99.90;;;;;;4986367;28;20141;-63
2023/04/06 06:30:59;;;;;;;15.13;9.77;;;5.10;99.90;;;;;;4986480;28;20054;-61
2023/04/06 06:33:26;;;;;;;11.88;9.40;;;5.30;99.90;;;;;;4984214;28;20034;-61
2023/04/06 06:35:52;;;;;;;11.80;8.88;;;5.40;98.80;;;;;;4986822;28;20061;-61
2023/04/06 06:38:18;;;;;;;13.25;9.00;;;5.60;98.20;;;;;;4984913;28;20038;-60
2023/04/06 06:40:44;;;;;;;10.65;8.63;;;5.80;97.80;;;;;;4986760;28;20061;-59
2023/04/06 06:43:10;;;;;;;12.43;8.77;;;6.00;96.60;;;;;;4986517;28;20429;-60
2023/04/06 06:45:36;;;;;;;10.15;8.73;;;6.10;96.30;;;;;;4986068;28;20173;-58
2023/04/06 06:48:01;;;;;;;12.13;9.07;;;6.20;95.50;;;;;;4985860;28;20133;-61
2023/04/06 06:50:27;;;;;;;11.57;8.95;;;6.30;95.00;;;;;;4986445;28;20431;-62
2023/04/06 06:52:53;;;;;;;12.15;9.43;;;6.30;94.50;;;;;;4985972;28;20097;-62
2023/04/06 06:55:21;;;;;;;11.70;9.00;;;6.20;92.70;;;;;;4986505;28;20512;-62
2023/04/06 06:57:46;;;;;;;11.05;9.20;;;5.90;92.30;;;;;;4990137;28;20046;-61
2023/04/06 07:00:14;;;;;;;12.38;9.38;;;5.70;92.50;;;;;;4993396;28;20041;-62
2023/04/06 07:02:40;;;;;;;12.10;9.25;;;5.70;92.30;;;;;;4984575;28;20058;-61
2023/04/06 07:05:06;;;;;;;11.48;8.50;;;5.70;92.20;;;;;;4986822;28;20045;-61
2023/04/06 07:07:32;;;;;;;13.98;9.40;;;5.70;92.10;;;;;;4986242;28;20034;-62
2023/04/06 07:09:58;;;;;;;13.68;9.82;;;5.90;92.10;;;;;;4985697;28;20047;-56
2023/04/06 07:12:24;;;;;;;11.90;9.27;;;6.20;91.70;;;;;;4986103;28;20053;-59
2023/04/06 07:14:49;;;;;;;11.98;9.40;;;6.40;91.40;;;;;;4986124;28;20042;-64
2023/04/06 07:17:15;;;;;;;14.00;9.70;;;6.50;91.20;;;;;;4985778;28;20065;-58
2023/04/06 07:19:41;;;;;;;11.48;9.50;;;6.70;90.50;;;;;;4989560;28;20042;-60
2023/04/06 07:22:06;;;;;;;11.80;9.48;;;7.00;90.40;;;;;;4989596;28;20042;-61
2023/04/06 07:24:32;;;;;;;14.48;9.63;;;7.00;90.30;;;;;;4989652;28;20464;-61
2023/04/06 07:27:00;;;;;;;12.77;10.05;;;6.60;90.40;;;;;;4989010;28;20117;-61
2023/04/06 07:29:26;;;;;;;12.13;9.43;;;6.50;90.60;;;;;;4989000;28;20046;-61
2023/04/06 07:31:52;;;;;;;12.15;9.77;;;6.60;90.90;;;;;;4987407;28;20057;-58
2023/04/06 07:34:18;;;;;;;14.85;9.90;;;6.90;90.40;;;;;;4988893;28;20035;-58
2023/04/06 07:36:44;;;;;;;14.80;9.13;;;7.20;90.10;;;;;;4989292;28;20256;-61
2023/04/06 07:39:10;;;;;;;15.65;9.40;;;7.60;89.60;;;;;;5003622;28;20042;-59
2023/04/06 07:41:36;;;;;;;11.32;9.38;;;7.80;88.20;;;;;;4988595;28;20034;-60
2023/04/06 07:44:02;;;;;;;14.93;9.68;;;7.70;88.00;;;;;;4988725;28;20056;-59
2023/04/06 07:46:27;;;;;;;11.45;9.20;;;7.40;89.20;;;;;;4988828;28;20042;-60
2023/04/06 07:48:53;;;;;;;11.55;9.98;;;8.00;89.70;;;;;;4987749;28;20254;-60
2023/04/06 07:51:18;;;;;;;16.02;9.93;;;7.80;88.10;;;;;;4988140;28;20097;-61
2023/04/06 07:53:45;;;;;;;12.38;9.45;;;8.10;88.50;;;;;;4988679;28;20077;-60
2023/04/06 07:56:11;;;;;;;13.95;9.73;;;8.10;87.20;;;;;;4988359;28;20417;-59
2023/04/06 07:58:37;;;;;;;14.00;9.60;;;8.30;86.40;;;;;;4999461;28;20104;-60
2023/04/06 08:01:03;;;;;;;17.83;10.68;;;7.90;86.10;;;;;;4988175;28;20046;-59
2023/04/06 08:03:29;;;;;;;12.30;9.68;;;7.80;87.50;;;;;;4987190;28;20047;-59
2023/04/06 08:05:55;;;;;;;12.82;10.07;;;7.80;88.70;;;;;;4988150;28;20050;-59
2023/04/06 08:08:21;;;;;;;11.80;9.48;;;7.70;90.00;;;;;;4988358;28;20053;-59
2023/04/06 08:10:48;;;;;;;14.13;10.52;;;8.00;90.20;;;;;;4987269;28;20379;-60
2023/04/06 08:13:14;;;;;;;12.10;9.60;;;7.00;91.20;;;;;;4988212;28;20047;-59
2023/04/06 08:15:40;;;;;;;13.10;10.07;;;6.90;91.50;;;;;;4995322;28;20054;-60
2023/04/06 08:18:05;;;;;;;14.15;10.50;;;6.80;91.50;;;;;;5006943;28;20527;-60
2023/04/06 08:20:31;;;;;;;12.98;10.20;;;6.70;91.10;;;;;;5007045;28;20131;-60
2023/04/06 08:22:57;;;;;;;13.82;9.73;;;6.70;91.90;;;;;;5006614;28;20042;-60
2023/04/06 08:25:22;;;;;;;11.88;9.48;;;6.80;91.60;;;;;;5007045;28;20045;-60
2023/04/06 08:27:48;;;;;;;14.50;10.02;;;6.90;90.40;;;;;;5006706;28;20049;-59
2023/04/06 08:30:15;;;;;;;13.57;10.18;;;6.90;90.80;;;;;;5006969;28;20038;-59
2023/04/06 08:32:41;;;;;;;16.85;10.23;;;7.00;91.40;;;;;;5005600;28;20085;-57
2023/04/06 08:35:07;;;;;;;11.73;9.55;;;7.20;90.80;;;;;;5007921;28;20163;-58
2023/04/06 08:37:33;;;;;;;12.52;9.65;;;7.40;93.80;;;;;;5006905;28;20061;-59
2023/04/06 08:39:59;;;;;;;13.68;10.70;;;7.70;90.90;;;;;;5006837;28;20516;-60
2023/04/06 08:42:28;;;;;;;13.05;9.32;;;7.80;90.70;;;;;;5006903;28;20074;-60
2023/04/06 08:44:55;;;;;;;12.93;10.07;;;7.90;90.50;;;;;;5006963;28;20129;-59
2023/04/06 08:47:21;;;;;;;12.70;9.88;;;8.00;90.60;;;;;;5006305;28;20089;-58
2023/04/06 08:49:47;;;;;;;12.88;9.73;;;8.30;88.40;;;;;;5006887;28;20069;-58
2023/04/06 08:52:15;;;;;;;11.95;9.60;;;8.20;86.20;;;;;;5007463;28;20048;-59
2023/04/06 08:54:41;;;;;;;13.48;9.23;;;8.40;87.00;;;;;;5007299;28;20053;-58
2023/04/06 08:57:07;;;;;;;14.77;10.15;;;8.50;84.70;;;;;;5003855;28;20050;-59
2023/04/06 08:59:34;;;;;;;11.90;9.63;;;8.60;84.20;;;;;;4995810;28;20060;-58
2023/04/06 09:02:03;;;;;;;10.80;8.88;;;8.90;85.60;;;;;;4985999;28;20112;-58
2023/04/06 09:04:28;;;;;;;15.50;9.20;;;9.50;85.40;;;;;;4986450;28;20413;-57
2023/04/06 09:06:54;;;;;;;12.10;9.48;;;9.90;81.50;;;;;;4987314;28;20050;-59
2023/04/06 09:09:20;;;;;;;10.85;9.15;;;10.20;80.10;;;;;;5002208;28;20042;-59
2023/04/06 09:11:47;;;;;;;11.93;9.38;;;10.40;79.20;;;;;;4986683;28;20400;-56
2023/04/06 09:14:15;;;;;;;12.23;10.18;;;10.50;77.50;;;;;;4987526;28;20049;-56
2023/04/06 09:16:45;;;;;;;12.32;8.70;;;10.60;77.40;;;;;;4986662;28;20050;-56
2023/04/06 09:19:12;;;;;;;13.13;8.93;;;10.80;77.70;;;;;;4987228;28;20053;-60
2023/04/06 09:21:39;;;;;;;13.85;9.43;;;11.00;76.00;;;;;;4987146;28;20053;-59
2023/04/06 09:24:07;;;;;;;11.85;8.82;;;11.10;75.20;;;;;;4986691;28;20117;-59
2023/04/06 09:26:43;;;;;;;14.07;9.10;;;11.30;75.50;;;;;;4985631;28;20050;-59
2023/04/06 09:29:09;;;;;;;12.77;8.45;;;11.40;75.00;;;;;;4986556;28;20097;-59
2023/04/06 09:31:35;;;;;;;11.85;8.60;;;11.50;73.90;;;;;;4986078;28;20049;-56
2023/04/06 09:34:01;;;;;;;11.60;8.32;;;11.50;74.40;;;;;;4986926;28;20589;-59
2023/04/06 09:36:35;;;;;;;10.60;7.80;;;11.60;75.40;;;;;;4986789;28;20133;-60
2023/04/06 09:39:02;;;;;;;11.15;8.45;;;11.60;73.70;;;;;;4986210;28;20054;-59
2023/04/06 09:41:30;;;;;;;14.07;8.70;;;11.80;72.80;;;;;;4986007;28;20038;-60
2023/04/06 09:44:07;;;;;;;11.70;7.82;;;11.90;70.90;;;;;;4986682;28;20047;-60
2023/04/06 09:46:34;;;;;;;14.98;7.75;;;11.70;70.70;;;;;;4985903;28;20043;-60
2023/04/06 09:49:02;;;;;;;11.38;8.10;;;11.50;71.50;;;;;;4986400;28;20133;-58
2023/04/06 09:51:31;;;;;;;13.10;8.13;;;11.50;70.90;;;;;;4986253;28;20061;-58
2023/04/06 09:54:02;;;;;;;10.20;7.78;;;11.60;71.30;;;;;;4985429;28;20041;-59
2023/04/06 09:56:31;;;;;;;12.75;8.52;;;11.60;70.30;;;;;;4986742;28;20085;-59
2023/04/06 09:59:03;;;;;;;12.98;9.13;;;11.80;72.00;;;;;;4994392;28;20042;-59
2023/04/06 10:01:31;;;;;;;16.02;9.07;;;11.90;70.60;;;;;;5004873;28;20054;-59
2023/04/06 10:04:07;;;;;;;13.55;8.50;;;11.90;68.70;;;;;;5005918;28;20144;-59
2023/04/06 10:06:35;;;;;;;12.13;8.82;;;12.00;68.50;;;;;;5005500;28;20481;-61
2023/04/06 10:09:03;;;;;;;12.55;9.13;;;12.10;69.90;;;;;;5006225;28;20128;-59
2023/04/06 10:11:30;;;;;;;13.73;8.82;;;12.30;68.70;;;;;;5005881;28;20074;-59
2023/04/06 10:13:56;;;;;;;12.93;9.02;;;12.30;70.40;;;;;;5005883;28;20038;-58
2023/04/06 10:16:22;;;;;;;13.95;9.13;;;12.60;69.30;;;;;;5005039;28;20049;-59
2023/04/06 10:18:54;;;;;;;15.52;10.07;;;12.50;68.40;;;;;;5006218;28;20120;-59
2023/04/06 10:21:25;;;;;;;15.27;9.70;;;12.40;69.20;;;;;;5005518;28;20042;-59
2023/04/06 10:23:54;;;;;;;16.67;10.20;;;12.30;69.30;;;;;;5006057;28;20049;-59
2023/04/06 10:26:21;;;;;;;16.95;11.18;;;12.40;69.50;;;;;;5006116;28;20142;-58
2023/04/06 10:28:49;;;;;;;14.52;10.07;;;12.40;69.40;;;;;;5005859;28;20054;-56
2023/04/06 10:31:23;;;;;;;15.43;10.75;;;12.50;70.10;;;;;;5005225;28;20054;-56
2023/04/06 10:34:02;;;;;;;19.93;12.10;;;12.60;70.20;;;;;;5006383;28;20141;-57
2023/04/06 10:36:33;;;;;;;17.05;11.40;;;12.60;67.90;;;;;;5005935;28;20049;-58
2023/04/06 10:39:02;;;;;;;18.63;12.57;;;12.40;68.40;;;;;;5005990;28;20063;-58
2023/04/06 10:41:54;;;;;;;20.00;12.13;;;12.20;68.60;;;;;;5005469;28;20514;-58
2023/04/06 10:44:21;;;;;;;16.83;11.00;;;12.10;69.70;;;;;;5004686;28;20054;-58
2023/04/06 10:46:54;;;;;;;17.90;12.95;;;12.20;69.90;;;;;;5004825;28;20117;-58
2023/04/06 10:49:20;;;;;;;18.30;13.30;;;12.20;69.50;;;;;;5005597;28;20053;-60
2023/04/06 10:51:55;;;;;;;26.85;21.05;;;12.20;70.20;;;;;;5007637;28;20077;-59
2023/04/06 10:54:22;;;;;;;21.38;13.65;;;12.30;71.10;;;;;;5008876;28;20382;-59
2023/04/06 10:56:48;;;;;;;18.30;11.90;;;12.40;69.10;;;;;;5007891;28;20078;-59
2023/04/06 10:59:18;;;;;;;18.65;13.32;;;12.30;68.70;;;;;;4999853;28;20130;-58
2023/04/06 11:01:45;;;;;;;20.48;13.88;;;12.20;68.80;;;;;;4984742;28;20050;-55
2023/04/06 11:04:19;;;;;;;17.38;11.40;;;12.10;70.60;;;;;;5005986;28;20101;-58
2023/04/06 11:06:49;;;;;;;18.17;13.55;;;12.20;70.00;;;;;;5009958;28;20396;-59
2023/04/06 11:09:28;;;;;;;19.50;13.32;;;12.10;70.50;;;;;;5008732;28;20046;-58
2023/04/06 11:11:55;;;;;;;18.40;13.95;;;12.20;70.20;;;;;;5008481;28;20060;-58
2023/04/06 11:14:20;;;;;;;21.23;13.35;;;12.20;71.00;;;;;;5008256;28;20471;-58
2023/04/06 11:16:50;;;;;;;18.42;13.23;;;12.30;71.20;;;;;;5008106;28;20125;-58
2023/04/06 11:19:17;;;;;;;19.20;13.50;;;12.40;70.70;;;;;;5009377;28;20483;-59
2023/04/06 11:21:46;;;;;;;22.60;14.70;;;12.50;70.00;;;;;;5008210;28;20077;-57
2023/04/06 11:24:20;;;;;;;19.52;12.55;;;12.40;70.90;;;;;;5007994;28;20050;-58
2023/04/06 11:26:50;;;;;;;17.38;13.00;;;12.60;70.70;;;;;;5008225;28;20077;-57
2023/04/06 11:29:37;;;;;;;22.30;13.75;;;12.50;70.60;;;;;;5007729;28;20064;-59
2023/04/06 11:32:04;;;;;;;19.77;13.85;;;12.50;70.20;;;;;;5007466;28;20049;-57
2023/04/06 11:34:32;;;;;;;23.38;15.07;;;12.40;70.00;;;;;;5007739;28;20180;-59
2023/04/06 11:37:05;;;;;;;23.15;15.02;;;12.40;69.70;;;;;;5008366;28;20046;-59
2023/04/06 11:39:32;;;;;;;21.23;14.15;;;12.40;70.30;;;;;;5007845;28;20068;-56
2023/04/06 11:42:00;;;;;;;22.63;15.73;;;12.60;70.50;;;;;;5006616;28;20050;-58
2023/04/06 11:44:35;;;;;;;25.15;15.85;;;12.50;69.50;;;;;;5006335;28;20046;-59
2023/04/06 11:47:04;;;;;;;;;;;12.50;69.10;;;;;;5007498;28;20033;-59
2023/04/06 11:49:31;;;;;;;20.77;15.18;;;12.50;69.40;;;;;;5007499;28;19925;-58
2023/04/06 11:51:58;;;;;;;24.33;16.80;;;12.50;69.60;;;;;;5007732;28;20041;-59
2023/04/06 11:54:37;;;;;;;24.08;16.20;;;12.50;70.20;;;;;;5007442;28;20077;-57
2023/04/06 11:57:04;;;;;;;24.52;16.00;;;12.60;70.10;;;;;;5005046;28;20090;-59
2023/04/06 11:59:31;;;;;;;20.73;15.20;;;12.60;70.20;;;;;;4995770;28;20054;-56
2023/04/06 12:01:57;;;;;;;24.00;16.05;;;12.60;71.40;;;;;;4986259;28;20081;-59
2023/04/06 12:04:23;;;;;;;21.60;14.68;;;12.80;70.40;;;;;;4986770;28;20600;-58
2023/04/06 12:06:49;;;;;;;23.08;15.88;;;12.80;70.10;;;;;;4988660;28;20034;-58
2023/04/06 12:09:15;;;;;;;30.95;16.95;;;12.90;70.30;;;;;;4987697;28;20049;-57
2023/04/06 12:11:40;;;;;;;27.05;17.10;;;12.90;69.80;;;;;;4987847;28;20046;-58
2023/04/06 12:14:07;;;;;;;21.13;16.02;;;13.00;69.90;;;;;;4987693;28;20150;-59
2023/04/06 12:16:34;;;;;;;25.38;16.73;;;13.00;69.70;;;;;;4987389;28;20058;-58
2023/04/06 12:19:00;;;;;;;22.15;16.98;;;13.00;70.20;;;;;;5006877;28;20396;-57
2023/04/06 12:21:33;;;;;;;22.58;17.13;;;13.10;68.90;;;;;;5006858;28;20137;-61
2023/04/06 12:24:00;;;;;;;21.30;14.10;;;13.00;69.10;;;;;;5006952;28;20049;-59
2023/04/06 12:26:26;;;;;;;25.67;17.88;;;12.90;69.20;;;;;;5006864;28;20400;-58
2023/04/06 12:28:52;;;;;;;23.67;17.15;;;13.00;68.60;;;;;;5007143;28;20046;-58
2023/04/06 12:31:18;;;;;;;22.73;16.15;;;12.90;69.20;;;;;;5006284;28;20092;-58
2023/04/06 12:33:47;;;;;;;23.73;17.63;;;13.00;68.50;;;;;;5006695;28;20152;-58
2023/04/06 12:36:13;;;;;;;22.83;17.35;;;13.10;69.40;;;;;;5006325;28;20048;-57